createdAt,value
2019-03-23T00:00:59.809Z,84.03
2019-03-23T00:03:28.872Z,87.27
2019-03-23T00:05:57.980Z,98.00
2019-03-23T00:08:27.112Z,96.42
2019-03-23T00:10:56.712Z,98.87
2019-03-23T00:13:25.822Z,81.42
2019-03-23T00:15:54.849Z,96.55
2019-03-23T00:18:24.010Z,101.75
2019-03-23T00:20:53.032Z,94.85
2019-03-23T00:23:22.560Z,108.27
2019-03-23T00:25:51.726Z,97.45
2019-03-23T00:28:20.837Z,96.85
2019-03-23T00:30:49.863Z,87.08
2019-03-23T00:33:18.938Z,90.75
2019-03-23T00:35:48.049Z,92.20
2019-03-23T00:38:17.165Z,103.78
2019-03-23T00:40:48.485Z,92.10
2019-03-23T00:43:17.117Z,100.22
2019-03-23T00:45:46.221Z,88.22
2019-03-23T00:48:15.304Z,98.03
2019-03-23T00:50:44.415Z,102.20
2019-03-23T00:53:13.757Z,112.17
2019-03-23T00:55:43.135Z,112.68
2019-03-23T00:58:12.161Z,105.00
2019-03-23T01:00:41.195Z,96.97
2019-03-23T01:03:10.249Z,112.40
2019-03-23T01:05:39.255Z,100.87
2019-03-23T01:08:08.272Z,93.72
2019-03-23T01:10:37.448Z,110.92
2019-03-23T01:13:06.834Z,98.55
2019-03-23T01:15:35.956Z,107.65
2019-03-23T01:18:05.088Z,88.87
2019-03-23T01:20:34.093Z,93.05
2019-03-23T01:23:03.102Z,106.75
2019-03-23T01:25:32.173Z,92.15
2019-03-23T01:28:01.308Z,103.60
2019-03-23T01:30:30.404Z,103.55
2019-03-23T01:32:59.741Z,105.22
2019-03-23T01:35:28.769Z,100.85
2019-03-23T01:37:57.788Z,99.55
2019-03-23T01:40:27.054Z,109.05
2019-03-23T01:42:56.433Z,95.10
2019-03-23T01:45:25.454Z,110.30
2019-03-23T01:47:54.637Z,110.45
2019-03-23T01:50:23.679Z,95.42
2019-03-23T01:52:52.795Z,94.67
2019-03-23T01:55:21.962Z,98.30
2019-03-23T01:57:51.057Z,99.42
2019-03-23T02:00:20.348Z,114.90
2019-03-23T02:02:49.837Z,105.58
2019-03-23T02:05:18.842Z,104.32
2019-03-23T02:07:47.857Z,102.87
2019-03-23T02:10:18.665Z,96.28
2019-03-23T02:12:48.176Z,101.80
2019-03-23T02:15:17.492Z,94.83
2019-03-23T02:17:46.579Z,102.92
2019-03-23T02:20:16.504Z,110.83
2019-03-23T02:22:45.661Z,108.15
2019-03-23T02:25:15.454Z,115.88
2019-03-23T02:27:44.776Z,103.45
2019-03-23T02:30:14.547Z,94.87
2019-03-23T02:32:43.711Z,103.72
2019-03-23T02:35:13.128Z,98.70
2019-03-23T02:37:42.257Z,92.42
2019-03-23T02:40:13.171Z,101.25
2019-03-23T02:42:42.229Z,98.00
2019-03-23T02:45:12.795Z,92.80
2019-03-23T02:47:42.455Z,99.35
2019-03-23T02:50:11.713Z,110.72
2019-03-23T02:52:41.080Z,92.60
2019-03-23T02:55:11.479Z,104.07
2019-03-23T02:57:40.637Z,103.35
2019-03-23T03:00:12.672Z,95.05
2019-03-23T03:02:41.847Z,101.27
2019-03-23T03:05:11.793Z,95.77
2019-03-23T03:07:42.860Z,77.80
2019-03-23T03:10:15.021Z,90.12
2019-03-23T03:12:44.188Z,91.35
2019-03-23T03:15:13.347Z,85.32
2019-03-23T03:17:42.536Z,87.80
2019-03-23T03:20:11.778Z,102.67
2019-03-23T03:22:40.892Z,81.37
2019-03-23T03:25:10.239Z,76.47
2019-03-23T03:27:39.571Z,69.97
2019-03-23T03:30:12.485Z,77.90
2019-03-23T03:32:41.796Z,77.03
2019-03-23T03:35:11.218Z,81.95
2019-03-23T03:37:40.324Z,65.35
2019-03-23T03:40:10.112Z,72.62
2019-03-23T03:42:39.202Z,56.00
2019-03-23T03:45:09.565Z,66.02
2019-03-23T03:47:41.218Z,63.30
2019-03-23T03:50:10.711Z,61.20
2019-03-23T03:52:39.911Z,63.58
2019-03-23T03:55:09.660Z,69.17
2019-03-23T03:57:38.753Z,70.55
2019-03-23T04:00:09.202Z,58.70
2019-03-23T04:02:38.958Z,68.05
2019-03-23T04:05:08.375Z,64.95
2019-03-23T04:07:37.482Z,64.92
2019-03-23T04:10:11.866Z,54.35
2019-03-23T04:12:40.988Z,48.80
2019-03-23T04:15:11.015Z,55.88
2019-03-23T04:17:40.505Z,60.55
2019-03-23T04:20:12.662Z,61.90
2019-03-23T04:22:41.772Z,61.85
2019-03-23T04:25:11.934Z,60.48
2019-03-23T04:27:41.037Z,58.92
2019-03-23T04:30:13.206Z,55.17
2019-03-23T04:32:42.536Z,53.08
2019-03-23T04:35:11.897Z,54.58
2019-03-23T04:37:40.988Z,57.78
2019-03-23T04:40:17.296Z,51.70
2019-03-23T04:42:43.933Z,54.98
2019-03-23T04:45:13.503Z,50.70
2019-03-23T04:47:42.640Z,48.85
2019-03-23T04:50:13.868Z,55.08
2019-03-23T04:52:42.980Z,51.18
2019-03-23T04:55:13.286Z,52.27
2019-03-23T04:57:42.394Z,51.80
2019-03-23T05:00:14.741Z,48.98
2019-03-23T05:02:43.867Z,48.70
2019-03-23T05:05:13.344Z,49.58
2019-03-23T05:07:42.493Z,45.28
2019-03-23T05:10:12.616Z,48.75
2019-03-23T05:12:41.714Z,45.45
2019-03-23T05:15:10.973Z,44.55
2019-03-23T05:17:40.566Z,47.25
2019-03-23T05:20:13.392Z,40.52
2019-03-23T05:22:42.489Z,43.48
2019-03-23T05:25:30.083Z,40.73
2019-03-23T05:27:59.405Z,38.73
2019-03-23T05:30:28.533Z,40.95
2019-03-23T05:32:57.778Z,44.05
2019-03-23T05:35:27.008Z,38.65
2019-03-23T05:37:56.136Z,39.03
2019-03-23T05:40:25.345Z,37.50
2019-03-23T05:42:54.458Z,45.55
2019-03-23T05:45:23.502Z,41.35
2019-03-23T05:47:52.666Z,39.27
2019-03-23T05:50:23.173Z,40.52
2019-03-23T05:52:52.231Z,35.55
2019-03-23T05:55:21.531Z,36.10
2019-03-23T05:57:50.823Z,34.35
2019-03-23T06:00:20.769Z,38.13
2019-03-23T06:02:49.961Z,39.55
2019-03-23T06:05:19.196Z,37.15
2019-03-23T06:07:48.297Z,35.48
2019-03-23T06:10:17.350Z,38.05
2019-03-23T06:12:46.625Z,42.65
2019-03-23T06:15:16.078Z,40.80
2019-03-23T06:17:45.395Z,38.40
2019-03-23T06:20:14.658Z,38.73
2019-03-23T06:22:43.765Z,35.13
2019-03-23T06:25:13.299Z,37.38
2019-03-23T06:27:42.675Z,40.52
2019-03-23T06:30:13.055Z,35.55
2019-03-23T06:32:42.222Z,38.23
2019-03-23T06:35:11.278Z,40.00
2019-03-23T06:37:40.413Z,33.75
2019-03-23T06:40:11.011Z,36.77
2019-03-23T06:42:40.095Z,38.42
2019-03-23T06:45:10.916Z,36.65
2019-03-23T06:47:40.140Z,35.90
2019-03-23T06:50:11.528Z,37.75
2019-03-23T06:52:40.639Z,40.17
2019-03-23T06:55:10.388Z,39.75
2019-03-23T06:57:39.793Z,39.55
2019-03-23T07:00:11.968Z,43.05
2019-03-23T07:02:41.205Z,45.38
2019-03-23T07:05:10.949Z,45.63
2019-03-23T07:07:40.057Z,40.33
2019-03-23T07:10:11.542Z,43.50
2019-03-23T07:12:40.878Z,41.70
2019-03-23T07:15:19.793Z,49.75
2019-03-23T07:17:42.462Z,45.65
2019-03-23T07:20:14.307Z,42.93
2019-03-23T07:22:43.596Z,50.85
2019-03-23T07:25:13.529Z,49.70
2019-03-23T07:27:42.838Z,50.20
2019-03-23T07:30:17.296Z,46.95
2019-03-23T07:32:46.653Z,50.25
2019-03-23T07:35:16.486Z,46.85
2019-03-23T07:37:45.647Z,49.50
2019-03-23T07:40:14.957Z,44.08
2019-03-23T07:42:44.299Z,43.73
2019-03-23T07:45:15.483Z,43.52
2019-03-23T07:47:45.297Z,41.13
2019-03-23T07:50:15.270Z,40.63
2019-03-23T07:52:44.460Z,40.52
2019-03-23T07:55:17.263Z,40.98
2019-03-23T07:57:46.540Z,37.00
2019-03-23T08:00:23.034Z,42.45
2019-03-23T08:02:52.159Z,37.17
2019-03-23T08:05:21.165Z,35.40
2019-03-23T08:07:50.217Z,34.80
2019-03-23T08:10:34.844Z,33.28
2019-03-23T08:13:04.266Z,34.03
2019-03-23T08:15:33.382Z,33.98
2019-03-23T08:18:02.910Z,38.20
2019-03-23T08:20:32.292Z,36.00
2019-03-23T08:23:01.415Z,38.45
2019-03-23T08:25:30.533Z,38.42
2019-03-23T08:27:59.930Z,36.77
2019-03-23T08:30:29.033Z,37.75
2019-03-23T08:32:57.970Z,39.75
2019-03-23T08:35:26.734Z,37.38
2019-03-23T08:37:55.494Z,40.92
2019-03-23T08:40:24.182Z,45.25
2019-03-23T08:42:53.016Z,45.48
2019-03-23T08:45:21.809Z,41.33
2019-03-23T08:47:50.817Z,44.13
2019-03-23T08:50:19.688Z,40.70
2019-03-23T08:52:48.441Z,47.27
2019-03-23T08:55:17.161Z,44.83
2019-03-23T08:57:46.409Z,49.38
2019-03-23T09:00:15.312Z,50.85
2019-03-23T09:02:44.086Z,51.70
2019-03-23T09:05:13.302Z,49.15
2019-03-23T09:07:42.091Z,47.85
2019-03-23T09:10:11.956Z,54.10
2019-03-23T09:12:40.691Z,45.98
2019-03-23T09:15:09.770Z,53.38
2019-03-23T09:17:38.535Z,50.05
2019-03-23T09:20:09.734Z,57.93
2019-03-23T09:22:38.487Z,55.63
2019-03-23T09:25:08.086Z,59.55
2019-03-23T09:27:37.060Z,63.15
2019-03-23T09:30:10.135Z,63.95
2019-03-23T09:32:38.910Z,67.42
2019-03-23T09:35:07.824Z,76.15
2019-03-23T09:37:38.159Z,75.85
2019-03-23T09:40:10.982Z,76.82
2019-03-23T09:42:37.901Z,82.53
2019-03-23T09:45:07.790Z,85.25
2019-03-23T09:47:37.002Z,78.75
2019-03-23T09:50:07.551Z,89.47
2019-03-23T09:52:36.473Z,85.60
2019-03-23T09:55:06.596Z,92.15
2019-03-23T09:57:35.393Z,87.85
2019-03-23T10:00:05.954Z,85.12
2019-03-23T10:02:35.162Z,84.42
2019-03-23T10:05:05.838Z,86.97
2019-03-23T10:07:34.628Z,89.52
2019-03-23T10:10:04.288Z,84.20
2019-03-23T10:12:33.235Z,79.50
2019-03-23T10:15:03.084Z,78.28
2019-03-23T10:17:32.006Z,78.12
2019-03-23T10:20:01.263Z,77.35
2019-03-23T10:22:30.156Z,81.67
2019-03-23T10:24:59.064Z,76.42
2019-03-23T10:27:27.798Z,77.15
2019-03-23T10:29:56.860Z,82.12
2019-03-23T10:32:25.758Z,82.72
2019-03-23T10:34:54.675Z,83.40
2019-03-23T10:37:23.438Z,82.82
2019-03-23T10:39:52.259Z,88.58
2019-03-23T10:42:21.094Z,82.02
2019-03-23T10:44:50.140Z,83.05
2019-03-23T10:47:18.982Z,83.52
2019-03-23T10:49:47.805Z,85.75
2019-03-23T10:52:16.615Z,84.00
2019-03-23T10:54:45.401Z,87.25
2019-03-23T10:57:14.183Z,88.82
2019-03-23T10:59:42.935Z,84.95
2019-03-23T11:02:11.621Z,84.60
2019-03-23T11:04:40.773Z,88.67
2019-03-23T11:07:09.889Z,79.90
2019-03-23T11:09:39.001Z,78.33
2019-03-23T11:12:08.075Z,77.37
2019-03-23T11:14:37.210Z,79.53
2019-03-23T11:17:06.345Z,75.03
2019-03-23T11:19:35.855Z,70.22
2019-03-23T11:22:05.214Z,76.65
2019-03-23T11:24:34.379Z,75.32
2019-03-23T11:27:03.762Z,80.60
2019-03-23T11:29:32.886Z,73.12
2019-03-23T11:32:02.042Z,70.10
2019-03-23T11:34:31.512Z,74.30
2019-03-23T11:37:00.663Z,72.45
2019-03-23T11:39:29.874Z,68.20
2019-03-23T11:41:59.341Z,77.12
2019-03-23T11:44:28.679Z,67.92
2019-03-23T11:46:57.811Z,69.85
2019-03-23T11:49:27.144Z,68.15
2019-03-23T11:51:56.251Z,68.45
2019-03-23T11:54:25.666Z,68.15
2019-03-23T11:56:54.844Z,66.45
2019-03-23T11:59:24.039Z,64.55
2019-03-23T12:01:56.054Z,67.78
2019-03-23T12:04:25.349Z,67.82
2019-03-23T12:06:54.532Z,63.05
2019-03-23T12:09:23.678Z,63.95
2019-03-23T12:11:53.265Z,70.65
2019-03-23T12:14:22.462Z,63.65
2019-03-23T12:16:51.804Z,65.87
2019-03-23T12:19:21.017Z,65.78
2019-03-23T12:21:50.934Z,61.98
2019-03-23T12:24:20.342Z,61.98
2019-03-23T12:26:49.639Z,64.47
2019-03-23T12:29:18.761Z,66.75
2019-03-23T12:31:47.926Z,67.08
2019-03-23T12:34:17.071Z,64.80
2019-03-23T12:36:46.266Z,63.78
2019-03-23T12:39:15.914Z,61.98
2019-03-23T12:41:45.161Z,66.62
2019-03-23T12:44:14.363Z,60.67
2019-03-23T12:46:48.205Z,66.45
2019-03-23T12:49:15.391Z,61.18
2019-03-23T12:51:48.449Z,60.45
2019-03-23T12:54:17.714Z,64.40
2019-03-23T12:56:47.379Z,69.17
2019-03-23T12:59:16.501Z,64.92
2019-03-23T13:01:45.572Z,62.13
2019-03-23T13:04:14.769Z,62.20
2019-03-23T13:06:43.881Z,70.67
2019-03-23T13:09:13.338Z,57.88
2019-03-23T13:11:42.597Z,64.62
2019-03-23T13:14:11.725Z,66.67
2019-03-23T13:16:41.228Z,61.00
2019-03-23T13:19:10.476Z,64.62
2019-03-23T13:21:39.537Z,66.57
2019-03-23T13:24:08.571Z,65.20
2019-03-23T13:26:37.761Z,69.07
2019-03-23T13:29:06.841Z,74.47
2019-03-23T13:31:35.853Z,68.00
2019-03-23T13:34:04.958Z,65.32
2019-03-23T13:36:34.086Z,68.67
2019-03-23T13:39:05.098Z,66.95
2019-03-23T13:41:34.344Z,62.53
2019-03-23T13:44:03.495Z,71.67
2019-03-23T13:46:32.608Z,71.35
2019-03-23T13:49:02.183Z,63.38
2019-03-23T13:51:33.236Z,59.98
2019-03-23T13:54:02.262Z,65.25
2019-03-23T13:56:32.785Z,67.30
2019-03-23T13:59:04.473Z,64.95
2019-03-23T14:01:34.208Z,64.75
2019-03-23T14:04:03.549Z,62.67
2019-03-23T14:06:32.792Z,70.05
2019-03-23T14:09:05.651Z,64.90
2019-03-23T14:11:36.327Z,59.15
2019-03-23T14:14:06.954Z,55.45
2019-03-23T14:16:36.328Z,62.53
2019-03-23T14:19:05.848Z,60.40
2019-03-23T14:21:35.108Z,59.77
2019-03-23T14:24:05.732Z,57.33
2019-03-23T14:26:35.108Z,59.53
2019-03-23T14:29:04.476Z,64.35
2019-03-23T14:31:33.601Z,55.15
2019-03-23T14:34:02.890Z,54.67
2019-03-23T14:36:33.379Z,57.62
2019-03-23T14:39:03.180Z,59.30
2019-03-23T14:41:34.290Z,60.78
2019-03-23T14:44:05.026Z,61.92
2019-03-23T14:46:34.314Z,60.92
2019-03-23T14:49:04.141Z,54.35
2019-03-23T14:51:33.281Z,58.87
2019-03-23T14:54:02.441Z,56.45
2019-03-23T14:56:32.055Z,62.83
2019-03-23T14:59:01.539Z,54.45
2019-03-23T15:01:30.806Z,59.88
2019-03-23T15:04:00.336Z,59.08
2019-03-23T15:06:29.471Z,58.28
2019-03-23T15:08:58.604Z,62.45
2019-03-23T15:11:27.771Z,59.80
2019-03-23T15:13:56.928Z,55.85
2019-03-23T15:16:26.049Z,56.48
2019-03-23T15:18:55.223Z,56.23
2019-03-23T15:21:24.371Z,55.60
2019-03-23T15:23:53.516Z,67.27
2019-03-23T15:26:22.682Z,53.48
2019-03-23T15:28:51.867Z,58.02
2019-03-23T15:31:21.214Z,59.95
2019-03-23T15:33:53.387Z,62.48
2019-03-23T15:36:22.500Z,55.85
2019-03-23T15:38:51.778Z,59.90
2019-03-23T15:41:22.208Z,57.03
2019-03-23T15:43:51.562Z,58.02
2019-03-23T15:46:20.949Z,54.27
2019-03-23T15:48:50.417Z,58.58
2019-03-23T15:51:19.530Z,57.17
2019-03-23T15:53:48.715Z,55.83
2019-03-23T15:56:17.969Z,58.23
2019-03-23T15:58:47.314Z,51.05
2019-03-23T16:01:16.518Z,60.40
2019-03-23T16:03:45.705Z,53.60
2019-03-23T16:06:14.802Z,57.60
2019-03-23T16:08:43.827Z,55.33
2019-03-23T16:11:12.900Z,55.33
2019-03-23T16:13:41.957Z,60.12
2019-03-23T16:16:11.163Z,58.65
2019-03-23T16:18:40.957Z,61.40
2019-03-23T16:21:10.540Z,60.45
2019-03-23T16:23:39.647Z,63.68
2019-03-23T16:26:08.800Z,52.90
2019-03-23T16:28:38.191Z,56.15
2019-03-23T16:31:07.343Z,53.90
2019-03-23T16:33:36.563Z,52.17
2019-03-23T16:36:05.679Z,62.43
2019-03-23T16:38:34.798Z,53.68
2019-03-23T16:41:04.263Z,55.05
2019-03-23T16:43:35.036Z,58.10
2019-03-23T16:46:04.535Z,56.30
2019-03-23T16:48:33.746Z,57.65
2019-03-23T16:51:03.816Z,55.38
2019-03-23T16:53:32.932Z,53.30
2019-03-23T16:56:02.588Z,54.30
2019-03-23T16:58:31.827Z,58.08
2019-03-23T17:01:01.018Z,55.00
2019-03-23T17:03:30.173Z,61.20
2019-03-23T17:05:59.411Z,64.10
2019-03-23T17:08:28.510Z,62.60
2019-03-23T17:10:57.718Z,58.78
2019-03-23T17:13:26.760Z,59.25
2019-03-23T17:15:55.987Z,65.80
2019-03-23T17:18:25.523Z,65.52
2019-03-23T17:20:54.552Z,63.73
2019-03-23T17:23:23.710Z,66.62
2019-03-23T17:25:52.887Z,66.50
2019-03-23T17:28:22.002Z,64.07
2019-03-23T17:30:51.963Z,66.82
2019-03-23T17:33:21.369Z,66.90
2019-03-23T17:35:50.577Z,63.10
2019-03-23T17:38:21.168Z,70.08
2019-03-23T17:40:50.526Z,68.62
2019-03-23T17:43:20.078Z,70.20
2019-03-23T17:45:49.640Z,73.10
2019-03-23T17:48:18.887Z,67.58
2019-03-23T17:50:48.023Z,64.95
2019-03-23T17:53:17.192Z,68.87
2019-03-23T17:55:46.724Z,72.53
2019-03-23T17:58:15.863Z,69.45
2019-03-23T18:00:47.889Z,72.78
2019-03-23T18:03:17.136Z,76.07
2019-03-23T18:05:46.359Z,68.87
2019-03-23T18:08:16.166Z,81.45
2019-03-23T18:10:45.343Z,69.50
2019-03-23T18:13:16.811Z,80.67
2019-03-23T18:15:45.494Z,66.65
2019-03-23T18:18:14.751Z,64.53
2019-03-23T18:20:44.075Z,72.67
2019-03-23T18:23:13.207Z,67.67
2019-03-23T18:25:42.343Z,64.03
2019-03-23T18:28:11.647Z,70.75
2019-03-23T18:30:42.274Z,65.70
2019-03-23T18:33:11.646Z,71.87
2019-03-23T18:35:40.798Z,70.55
2019-03-23T18:38:10.046Z,71.97
2019-03-23T18:40:39.791Z,67.05
2019-03-23T18:43:08.862Z,72.35
2019-03-23T18:45:38.261Z,70.70
2019-03-23T18:48:07.599Z,71.75
2019-03-23T18:50:38.083Z,71.40
2019-03-23T18:53:07.843Z,73.12
2019-03-23T18:55:37.289Z,71.17
2019-03-23T18:58:06.967Z,68.17
2019-03-23T19:00:41.600Z,64.62
2019-03-23T19:03:10.845Z,70.57
2019-03-23T19:05:40.049Z,69.27
2019-03-23T19:08:11.769Z,73.83
2019-03-23T19:10:40.675Z,68.80
2019-03-23T19:13:10.150Z,67.10
2019-03-23T19:15:39.795Z,67.75
2019-03-23T19:18:09.003Z,69.72
2019-03-23T19:20:39.306Z,65.57
2019-03-23T19:23:10.053Z,64.72
2019-03-23T19:25:39.453Z,68.50
2019-03-23T19:28:08.522Z,62.38
2019-03-23T19:30:38.021Z,64.87
2019-03-23T19:33:07.202Z,67.80
2019-03-23T19:35:39.210Z,66.35
2019-03-23T19:38:08.559Z,65.55
2019-03-23T19:40:37.724Z,72.47
2019-03-23T19:43:09.211Z,65.25
2019-03-23T19:45:38.577Z,67.53
2019-03-23T19:48:08.000Z,67.78
2019-03-23T19:50:37.109Z,69.85
2019-03-23T19:53:06.431Z,70.42
2019-03-23T19:55:35.734Z,70.37
2019-03-23T19:58:05.090Z,66.25
2019-03-23T20:00:35.551Z,59.03
2019-03-23T20:03:04.842Z,74.05
2019-03-23T20:05:34.055Z,70.32
2019-03-23T20:08:03.212Z,68.02
2019-03-23T20:10:32.760Z,68.42
2019-03-23T20:13:01.945Z,65.55
2019-03-23T20:15:31.084Z,70.52
2019-03-23T20:18:00.274Z,63.55
2019-03-23T20:20:29.372Z,62.90
2019-03-23T20:22:58.549Z,60.25
2019-03-23T20:25:27.675Z,62.50
2019-03-23T20:27:56.954Z,63.20
2019-03-23T20:30:26.376Z,61.68
2019-03-23T20:32:55.839Z,60.80
2019-03-23T20:35:26.498Z,63.25
2019-03-23T20:37:56.167Z,60.40
2019-03-23T20:40:25.785Z,60.75
2019-03-23T20:42:55.512Z,61.60
2019-03-23T20:45:29.503Z,62.65
2019-03-23T20:47:59.036Z,62.60
2019-03-23T20:50:28.444Z,60.98
2019-03-23T20:52:57.852Z,56.10
2019-03-23T20:55:31.144Z,55.92
2019-03-23T20:58:00.495Z,56.23
2019-03-23T21:00:32.280Z,61.37
2019-03-23T21:03:01.736Z,58.48
2019-03-23T21:05:34.102Z,54.85
2019-03-23T21:08:02.079Z,52.15
2019-03-23T21:10:31.541Z,54.23
2019-03-23T21:13:01.387Z,54.20
2019-03-23T21:15:30.898Z,51.25
2019-03-23T21:18:00.183Z,45.50
2019-03-23T21:20:32.131Z,35.17
2019-03-23T21:23:01.958Z,37.95
2019-03-23T21:25:31.470Z,36.77
2019-03-23T21:28:00.585Z,33.48
2019-03-23T21:30:30.450Z,35.43
2019-03-23T21:33:04.681Z,33.08
2019-03-23T21:35:34.560Z,41.60
2019-03-23T21:38:03.962Z,45.85
2019-03-23T21:40:35.049Z,39.92
2019-03-23T21:43:06.078Z,36.25
2019-03-23T21:45:35.468Z,36.88
2019-03-23T21:48:06.090Z,36.83
2019-03-23T21:50:35.325Z,41.50
2019-03-23T21:53:04.569Z,40.63
2019-03-23T21:55:34.052Z,33.98
2019-03-23T21:58:05.219Z,37.48
2019-03-23T22:00:35.757Z,35.78
2019-03-23T22:03:04.987Z,34.27
2019-03-23T22:05:34.349Z,40.45
2019-03-23T22:08:03.732Z,38.38
2019-03-23T22:10:33.456Z,40.30
2019-03-23T22:13:02.761Z,44.77
2019-03-23T22:15:33.319Z,34.18
2019-03-23T22:18:02.719Z,39.65
2019-03-23T22:20:31.986Z,37.75
2019-03-23T22:23:01.180Z,35.20
2019-03-23T22:25:30.264Z,33.92
2019-03-23T22:28:01.182Z,36.73
2019-03-23T22:30:30.527Z,32.10
2019-03-23T22:32:59.676Z,36.53
2019-03-23T22:35:29.378Z,35.55
2019-03-23T22:37:58.587Z,38.98
2019-03-23T22:40:28.314Z,35.35
2019-03-23T22:42:57.641Z,34.73
2019-03-23T22:45:27.321Z,36.75
2019-03-23T22:47:56.372Z,33.35
2019-03-23T22:50:25.498Z,33.15
2019-03-23T22:52:54.626Z,42.00
2019-03-23T22:55:23.874Z,40.10
2019-03-23T22:57:53.252Z,33.23
2019-03-23T23:00:35.231Z,32.53
2019-03-23T23:03:05.232Z,35.52
2019-03-23T23:05:34.446Z,44.30
2019-03-23T23:08:03.751Z,33.08
2019-03-23T23:10:33.054Z,38.23
2019-03-23T23:13:02.212Z,37.45
2019-03-23T23:15:31.544Z,33.05
2019-03-23T23:18:00.689Z,37.88
2019-03-23T23:20:29.879Z,43.65
2019-03-23T23:22:59.392Z,41.10
2019-03-23T23:25:29.022Z,36.70
2019-03-23T23:27:58.123Z,38.85
2019-03-23T23:30:27.260Z,36.23
2019-03-23T23:32:56.413Z,40.17
2019-03-23T23:35:25.540Z,37.95
2019-03-23T23:37:54.751Z,36.70
2019-03-23T23:40:24.443Z,40.58
2019-03-23T23:42:53.577Z,39.27
2019-03-23T23:45:22.674Z,45.65
2019-03-23T23:47:52.121Z,41.73
2019-03-23T23:50:21.490Z,41.65
2019-03-23T23:52:50.633Z,33.95
2019-03-23T23:55:19.846Z,39.23
2019-03-23T23:57:48.857Z,37.33
